FOLSOM LAKE (FOL)

Elevation: 466' · AMERICAN R basin · Operator: US Bureau of Reclamation

Provisional data, subject to change.
Query executed Sunday at 8:49:33   clock

Select a sensor type for a plot of data.
Note: Reservoir Flows are daily averages.

Earlier

Date RES ELE    STORAGE    RES CHG    TOC STO    ABV TOC    OUTFLOW    INFLOW    EVAP    FNF    RIV REL    PPT INC    SPILL    DC PUMP    DIS PWR   
 FEET   AF   AF   AF   AF   CFS   CFS   CFS   CFS   CFS   INCHES   CFS   CFS   CFS  
10/25/2014 389.54 313909 -1234 772918 -- 1073 465 14 101 e 498 0.00 0 105 470
10/26/2014 389.25 312204 -1705 764755 -452551 1231 385 14 70 e 498 0.00 0 102 631
10/27/2014 388.90 310154 -2050 756592 -446438 1304 291 21 54 e 498 0.00 0 105 701
10/28/2014 388.60 308412 -1742 748429 -440017 1164 307 21 11 497 0.00 0 102 565
10/29/2014 388.34 306903 -1509 740265 -433362 1075 333 19 249 497 0.00 0 110 468
10/30/2014 388.08 305393 -1510 732102 -426709 977 229 13 230 e 497 0.00 0 105 375
10/31/2014 387.98 304814 -579 723939 -- 896 619 15 230 e 496 0.00 0 104 296
11/01/2014 388.08 305393 579 715776 -- 907 1203 4 324 e 497 0.46 0 81 329
11/02/2014 387.75 303496 -1897 707612 -404116 1437 481 0 323 e 496 0.37 0 87 854
11/03/2014 387.47 301892 -1604 699449 -397557 1285 489 13 323 e 496 0.00 0 91 698
11/04/2014 387.36 301261 -631 691286 -390025 1045 740 13 144 e 496 0.00 0 88 461
11/05/2014 387.12 299886 -1375 683122 -383236 1065 385 13 114 496 0.00 0 81 488
11/06/2014 386.83 298236 -1650 674959 -376723 1231 412 13 97 495 0.00 0 92 644
11/07/2014 386.50 296369 -1867 666796 -- 1183 255 13 66 e 495 0.00 0 93 595
11/08/2014 386.22 294785 -1584 658633 -- 1286 500 13 66 e 494 0.00 0 94 698
11/09/2014 386.09 294049 -736 650469 -- 756 402 17 66 e 494 0.00 0 96 166
11/10/2014 385.81 292479 -1570 642306 -- 1218 441 15 34 494 0.00 0 98 626
11/11/2014 385.59 291250 -1229 634143 -342893 1130 519 9 80 494 0.00 0 98 538
11/12/2014 385.33 289798 -1452 625980 -336182 1105 380 7 66 e 493 0.00 0 100 512
11/13/2014 385.15 288793 -1005 617816 -329023 1054 549 2 496 493 0.24 0 79 482
11/14/2014 384.85 287128 -1665 609653 -- 1309 479 9 337 493 0.00 0 70 746
11/15/2014 384.64 285970 -1158 601490 -- 1228 653 9 193 493 0.00 0 72 663
11/16/2014 384.42 284757 -1213 593326 -- 1057 454 9 169 492 0.00 0 79 486
11/17/2014 384.27 283931 -826 585163 -301232 971 562 7 127 e 492 0.00 0 83 396
11/18/2014 384.18 283434 -497 577000 -293566 1184 946 13 127 e 492 0.00 0 79 613
11/19/2014 384.13 283159 -275 577000 -293841 948 818 9 195 489 0.00 0 73 386
11/20/2014 384.18 283434 275 577000 -293566 889 1028 0 590 492 0.03 0 66 331
11/21/2014 384.06 282773 -661 -- -- 1183 850 0 -- 492 0.18 0 63 628
11/22/2014 383.93 282061 -712 -- -- 1250 895 4 -- 492 0.00 0 68 690
11/23/2014 -- -- -- -- -- -- -- -- -- -- -- -- -- --

Later | Latest

Warning! This data is preliminary and subject to revision.

Show FOL Map | Plot FOL Data | 1 Month FOL Data | Real-Time FOL Data | FOL Info